METAR Data
IDs: Format: Raw Decoded Include TAF

Data at: 2354 UTC 24 Apr 2019

METAR for:KCNC (Chariton Muni, IA, US)
Text:KCNC 242335Z AUTO 15007KT 10SM FEW032 17/12 A2981 RMK AO2
Temperature: 17.0°C ( 63°F)
Dewpoint: 12.0°C ( 54°F) [RH = 72%]
Pressure (altimeter):29.81 inches Hg (1009.6 mb)
Winds:from the SSE (150 degrees) at 8 MPH (7 knots; 3.6 m/s)
Visibility:10 or more sm (16+ km)
Ceiling:at least 12,000 feet AGL
Clouds: few clouds at 3200 feet AGL
QC Flag:automated observation with no human augmentation